Time;durP1;ratioP1;P1;durP2;ratioP2;P2;SDS_P1;SDS_P2;PMS_P1;PMS_P2;Temp;Humidity;BMP_temperature;BMP_pressure;BME280_temperature;BME280_humidity;BME280_pressure;Samples;Min_cycle;Max_cycle;Signal;HPM_P1;HPM_P2
2023/04/24 00:01:59;;;;;;;;;;;;;;;20.06;63.53;99681.06;2226756;79;51464;-70
2023/04/24 00:05:02;;;;;;;;;;;;;;;20.04;63.56;99671.91;2215420;79;51684;-71
2023/04/24 00:08:04;;;;;;;;;;;;;;;20.06;63.73;99661.74;2276288;77;24952;-71
2023/04/24 00:11:06;;;;;;;;;;;;;;;20.07;63.50;99659.91;2219562;79;51555;-71
2023/04/24 00:14:07;;;;;;;;;;;;;;;20.06;63.64;99655.55;2238373;79;52062;-71
2023/04/24 00:17:09;;;;;;;;;;;;;;;20.05;63.77;99652.05;2196201;79;52493;-70
2023/04/24 00:20:11;;;;;;;;;;;;;;;20.04;63.76;99657.13;2219389;79;51444;-70
2023/04/24 00:23:12;;;;;;;;;;;;;;;20.05;63.56;99644.52;2219810;79;50296;-70
2023/04/24 00:26:14;;;;;;;;;;;;;;;20.05;63.56;99644.52;2238190;79;51473;-71
2023/04/24 00:29:15;;;;;;;;;;;;;;;20.03;63.65;99639.36;2211031;78;51047;-71
2023/04/24 00:32:17;;;;;;;;;;;;;;;20.03;63.51;99629.95;2207474;78;50368;-71
2023/04/24 00:35:19;;;;;;;;;;;;;;;20.05;63.58;99631.91;2222305;80;51627;-71
2023/04/24 00:38:22;;;;;;;;;;;;;;;20.03;63.74;99625.93;2202179;80;50428;-70
2023/04/24 00:41:23;;;;;;;;;;;;;;;20.05;63.42;99624.38;2166288;80;49518;-71
2023/04/24 00:44:25;;;;;;;;;;;;;;;20.04;63.38;99616.85;2222199;80;51438;-70
2023/04/24 00:47:26;;;;;;;;;;;;;;;20.02;63.60;99613.56;2222433;80;51495;-70
2023/04/24 00:50:28;;;;;;;;;;;;;;;20.01;63.56;99611.40;2202206;80;50236;-70
2023/04/24 00:53:30;;;;;;;;;;;;;;;20.02;63.58;99608.19;2222436;80;50767;-70
2023/04/24 00:56:32;;;;;;;;;;;;;;;20.00;63.64;99600.34;2222270;80;50209;-71
2023/04/24 00:59:33;;;;;;;;;;;;;;;20.02;63.76;99600.13;2228927;78;50379;-70
2023/04/24 01:02:35;;;;;;;;;;;;;;;20.01;63.83;99593.09;2267866;77;50582;-71
2023/04/24 01:05:36;;;;;;;;;;;;;;;20.01;63.77;99594.44;2215445;79;51139;-70
2023/04/24 01:08:38;;;;;;;;;;;;;;;20.00;63.81;99592.81;2277231;78;50428;-71
2023/04/24 01:11:40;;;;;;;;;;;;;;;20.01;63.86;99597.13;2238391;79;50603;-72
2023/04/24 01:14:41;;;;;;;;;;;;;;;20.01;63.86;99602.50;2275687;78;50350;-71
2023/04/24 01:17:43;;;;;;;;;;;;;;;20.00;63.80;99596.84;2275675;78;50340;-71
2023/04/24 01:20:45;;;;;;;;;;;;;;;20.01;64.00;99601.16;2252423;78;50043;-71
2023/04/24 01:23:46;;;;;;;;;;;;;;;20.00;64.04;99607.58;2275711;78;50314;-71
2023/04/24 01:26:48;;;;;;;;;;;;;;;20.00;63.85;99599.52;2275859;78;50342;-71
2023/04/24 01:29:51;;;;;;;;;;;;;;;20.01;63.73;99599.31;2245972;77;50349;-71
2023/04/24 01:32:53;;;;;;;;;;;;;;;19.99;63.89;99593.33;2259244;78;51635;-70
2023/04/24 01:35:54;;;;;;;;;;;;;;;20.00;63.80;99592.81;2228807;79;51522;-70
2023/04/24 01:38:56;;;;;;;;;;;;;;;20.00;63.86;99587.44;2240477;78;51536;-71
2023/04/24 01:41:58;;;;;;;;;;;;;;;20.00;63.62;99582.06;2228922;79;50992;-71
2023/04/24 01:44:59;;;;;;;;;;;;;;;20.01;63.69;99583.70;2228751;78;50712;-70
2023/04/24 01:48:01;;;;;;;;;;;;;;;19.99;63.72;99575.88;2240522;78;50400;-70
2023/04/24 01:51:03;;;;;;;;;;;;;;;20.00;63.83;99585.56;2240620;78;50296;-70
2023/04/24 01:54:05;;;;;;;;;;;;;;;20.01;63.78;99575.64;2204768;79;50866;-70
2023/04/24 01:57:06;;;;;;;;;;;;;;;20.00;63.86;99569.98;2240357;79;50790;-70
2023/04/24 02:00:08;;;;;;;;;;;;;;;20.00;63.73;99568.64;2254550;77;50776;-70
2023/04/24 02:03:10;;;;;;;;;;;;;;;19.99;63.92;99566.48;2222644;79;50665;-73
2023/04/24 02:06:11;;;;;;;;;;;;;;;20.00;63.75;99564.61;2201894;80;51591;-71
2023/04/24 02:09:13;;;;;;;;;;;;;;;19.99;63.83;99560.30;2222427;80;50630;-70
2023/04/24 02:12:15;;;;;;;;;;;;;;;19.99;64.05;99565.67;2202028;80;51488;-70
2023/04/24 02:15:17;;;;;;;;;;;;;;;19.98;64.04;99553.27;2201932;80;50719;-71
2023/04/24 02:18:19;;;;;;;;;;;;;;;19.97;63.82;99555.13;2175250;80;51239;-70
2023/04/24 02:21:21;;;;;;;;;;;;;;;19.98;63.77;99547.89;2202300;80;51744;-71
2023/04/24 02:24:22;;;;;;;;;;;;;;;19.97;63.82;99548.42;2222108;80;51503;-71
2023/04/24 02:27:24;;;;;;;;;;;;;;;19.98;63.87;99539.84;2222297;80;50248;-71
2023/04/24 02:30:26;;;;;;;;;;;;;;;19.98;63.91;99551.92;2202177;80;50252;-71
2023/04/24 02:33:27;;;;;;;;;;;;;;;19.98;63.78;99547.89;2221553;79;49629;-71
2023/04/24 02:36:30;;;;;;;;;;;;;;;19.97;63.78;99547.61;2222489;79;49923;-71
2023/04/24 02:39:31;;;;;;;;;;;;;;;19.97;63.83;99545.73;2222380;79;51576;-71
2023/04/24 02:42:33;;;;;;;;;;;;;;;19.96;63.88;99543.25;2250991;78;50370;-72
2023/04/24 02:45:35;;;;;;;;;;;;;;;19.98;64.10;99546.55;2250735;78;51167;-71
2023/04/24 02:48:36;;;;;;;;;;;;;;;19.97;63.91;99546.27;2222513;79;51414;-71
2023/04/24 02:51:40;;;;;;;;;;;;;;;19.97;63.88;99546.27;2250959;78;51469;-71
2023/04/24 02:54:41;;;;;;;;;;;;;;;19.95;63.92;99546.47;2222680;78;22409;-71
2023/04/24 02:57:42;;;;;;;;;;;;;;;19.95;63.90;99542.44;2225830;79;49666;-71
2023/04/24 03:00:44;;;;;;;;;;;;;;;19.96;63.88;99537.89;2252832;78;50086;-71
2023/04/24 03:03:46;;;;;;;;;;;;;;;19.96;63.92;99541.91;2230257;78;50456;-71
2023/04/24 03:06:47;;;;;;;;;;;;;;;19.96;63.88;99532.52;2222460;78;50396;-71
2023/04/24 03:09:49;;;;;;;;;;;;;;;19.97;63.96;99530.16;2202083;80;51187;-72
2023/04/24 03:12:51;;;;;;;;;;;;;;;19.97;63.87;99542.23;2222463;80;51547;-71
2023/04/24 03:15:53;;;;;;;;;;;;;;;19.94;64.02;99542.16;2226040;79;50265;-72
2023/04/24 03:18:55;;;;;;;;;;;;;;;19.95;63.91;99548.34;2225997;78;51633;-71
2023/04/24 03:21:57;;;;;;;;;;;;;;;19.95;64.13;99549.68;2202106;80;52381;-71
2023/04/24 03:24:58;;;;;;;;;;;;;;;19.97;64.05;99561.03;2222174;80;51467;-71
2023/04/24 03:28:00;;;;;;;;;;;;;;;19.95;63.90;99553.70;2222447;79;51415;-71
2023/04/24 03:31:01;;;;;;;;;;;;;;;19.94;63.89;99551.55;2232481;79;51504;-71
2023/04/24 03:34:03;;;;;;;;;;;;;;;19.95;63.88;99544.31;2195531;79;51484;-71
2023/04/24 03:37:05;;;;;;;;;;;;;;;19.95;63.81;99546.47;2229610;79;51435;-72
2023/04/24 03:40:07;;;;;;;;;;;;;;;19.95;63.98;99543.78;2254069;78;51414;-71
2023/04/24 03:43:09;;;;;;;;;;;;;;;19.96;63.72;99544.59;2254225;78;51489;-71
2023/04/24 03:46:11;;;;;;;;;;;;;;;19.96;63.87;99554.00;2208850;78;52759;-70
2023/04/24 03:49:12;;;;;;;;;;;;;;;19.96;63.93;99555.34;2232977;78;51537;-70
2023/04/24 03:52:14;;;;;;;;;;;;;;;19.95;63.86;99550.50;2233059;78;51426;-71
2023/04/24 03:55:15;;;;;;;;;;;;;;;19.94;63.84;99547.52;2264900;78;51447;-71
2023/04/24 03:58:17;;;;;;;;;;;;;;;19.97;63.72;99558.34;2232841;78;49637;-70
2023/04/24 04:01:20;;;;;;;;;;;;;;;19.94;63.94;99552.89;2226326;78;51613;-71
2023/04/24 04:04:22;;;;;;;;;;;;;;;19.95;63.98;99551.02;2212460;79;50389;-71
2023/04/24 04:07:23;;;;;;;;;;;;;;;19.96;64.08;99549.97;2244112;79;50628;-71
2023/04/24 04:10:25;;;;;;;;;;;;;;;19.93;63.90;99551.23;2188684;79;51718;-71
2023/04/24 04:13:26;;;;;;;;;;;;;;;19.94;63.91;99542.68;2244115;79;51492;-71
2023/04/24 04:16:28;;;;;;;;;;;;;;;19.94;63.85;99544.84;2243874;79;51615;-71
2023/04/24 04:19:30;;;;;;;;;;;;;;;19.95;63.83;99544.31;2244067;79;51600;-71
2023/04/24 04:22:32;;;;;;;;;;;;;;;19.95;63.92;99547.00;2212187;79;50089;-70
2023/04/24 04:25:34;;;;;;;;;;;;;;;19.95;63.93;99547.00;2212043;79;50748;-71
2023/04/24 04:28:35;;;;;;;;;;;;;;;19.93;63.85;99542.36;2244135;79;50393;-70
2023/04/24 04:31:37;;;;;;;;;;;;;;;19.94;63.79;99538.66;2261748;78;50257;-71
2023/04/24 04:34:39;;;;;;;;;;;;;;;19.94;63.94;99534.63;2188924;79;50112;-70
2023/04/24 04:37:41;;;;;;;;;;;;;;;19.95;63.75;99541.63;2212536;79;50342;-70
2023/04/24 04:40:43;;;;;;;;;;;;;;;19.94;63.93;99539.99;2212452;79;50078;-71
2023/04/24 04:43:44;;;;;;;;;;;;;;;19.94;64.06;99549.39;2243781;79;51554;-71
2023/04/24 04:46:47;;;;;;;;;;;;;;;19.94;63.99;99561.47;2188902;79;51049;-71
2023/04/24 04:49:48;;;;;;;;;;;;;;;19.93;64.07;99561.97;2243964;79;51660;-70
2023/04/24 04:52:50;;;;;;;;;;;;;;;19.93;63.95;99564.66;2212187;79;51525;-70
2023/04/24 04:55:51;;;;;;;;;;;;;;;19.93;63.90;99559.81;2212067;79;51451;-70
2023/04/24 04:58:53;;;;;;;;;;;;;;;19.93;64.64;99564.66;2244187;78;51534;-70
2023/04/24 05:01:55;;;;;;;;;;;;;;;19.94;64.89;99569.00;2225387;78;51498;-70
2023/04/24 05:04:57;;;;;;;;;;;;;;;19.97;65.21;99570.43;2281510;78;51471;-69
2023/04/24 05:07:58;;;;;;;;;;;;;;;19.96;65.59;99567.42;2249560;78;51597;-71
2023/04/24 05:11:00;;;;;;;;;;;;;;;19.95;65.41;99567.95;2224847;78;51425;-71
2023/04/24 05:14:01;;;;;;;;;;;;;;;19.96;65.32;99575.48;2283541;78;50722;-71
2023/04/24 05:17:03;;;;;;;;;;;;;;;19.95;65.53;99575.19;2251567;78;50654;-71
2023/04/24 05:20:05;;;;;;;;;;;;;;;19.95;65.60;99571.98;2281984;78;50695;-71
2023/04/24 05:23:07;;;;;;;;;;;;;;;19.95;65.43;99572.50;2226397;78;50996;-71
2023/04/24 05:26:09;;;;;;;;;;;;;;;19.95;65.02;99573.31;2249057;78;50420;-70
2023/04/24 05:29:11;;;;;;;;;;;;;;;19.96;64.76;99570.11;2246607;78;51388;-71
2023/04/24 05:32:13;;;;;;;;;;;;;;;19.97;64.88;99579.83;2224609;78;50819;-71
2023/04/24 05:35:14;;;;;;;;;;;;;;;19.98;64.79;99580.11;2244718;79;51421;-70
2023/04/24 05:38:19;;;;;;;;;;;;;;;19.99;64.89;99587.97;2214791;79;50694;-71
2023/04/24 05:41:22;;;;;;;;;;;;;;;19.97;64.99;99579.30;2213364;79;51591;-71
2023/04/24 05:44:23;;;;;;;;;;;;;;;19.99;64.99;99574.53;2244083;79;50491;-71
2023/04/24 05:47:26;;;;;;;;;;;;;;;20.09;65.11;99575.40;2212640;79;49577;-71
2023/04/24 05:50:27;;;;;;;;;;;;;;;20.10;65.49;99578.38;2247482;79;51537;-70
2023/04/24 05:53:29;;;;;;;;;;;;;;;20.13;66.63;99573.90;2244769;79;51484;-73
2023/04/24 05:56:31;;;;;;;;;;;;;;;20.13;66.40;99579.27;2213023;79;51425;-72
2023/04/24 05:59:32;;;;;;;;;;;;;;;20.19;65.93;99581.59;2214461;78;51802;-72
2023/04/24 06:02:34;;;;;;;;;;;;;;;20.25;66.13;99589.32;2267558;78;51527;-73
2023/04/24 06:05:36;;;;;;;;;;;;;;;20.32;65.82;99596.78;2280151;77;51447;-72
2023/04/24 06:08:37;;;;;;;;;;;;;;;20.34;65.59;99594.70;2282032;78;51577;-72
2023/04/24 06:11:39;;;;;;;;;;;;;;;20.44;65.31;99586.96;2225366;78;52488;-72
2023/04/24 06:14:40;;;;;;;;;;;;;;;20.46;65.10;99592.94;2249237;78;51411;-72
2023/04/24 06:17:42;;;;;;;;;;;;;;;20.53;65.17;99599.08;2249378;78;51470;-73
2023/04/24 06:20:43;;;;;;;;;;;;;;;20.57;65.05;99602.98;2249251;78;50397;-72
2023/04/24 06:23:46;;;;;;;;;;;;;;;20.61;64.85;99606.06;2224764;78;51237;-73
2023/04/24 06:26:48;;;;;;;;;;;;;;;20.66;64.80;99603.54;2249885;78;51643;-72
2023/04/24 06:29:54;;;;;;;;;;;;;;;20.63;64.52;99610.70;2276852;78;51435;-72
2023/04/24 06:32:53;;;;;;;;;;;;;;;20.54;64.47;99608.81;2232485;78;22277;-72
2023/04/24 06:35:54;;;;;;;;;;;;;;;20.54;64.43;99604.78;2211934;79;50935;-73
2023/04/24 06:38:57;;;;;;;;;;;;;;;20.58;64.48;99609.20;2244057;79;50757;-73
2023/04/24 06:41:59;;;;;;;;;;;;;;;20.66;64.49;99615.11;2243992;79;51613;-72
2023/04/24 06:45:00;;;;;;;;;;;;;;;20.72;64.24;99621.98;2243749;79;50764;-73
2023/04/24 06:48:02;;;;;;;;;;;;;;;20.72;63.98;99623.33;2188592;79;51793;-73
2023/04/24 06:51:04;;;;;;;;;;;;;;;20.74;63.89;99614.52;2243988;79;50298;-73
2023/04/24 06:54:05;;;;;;;;;;;;;;;20.79;63.77;99605.27;2212215;79;50261;-73
2023/04/24 06:57:07;;;;;;;;;;;;;;;20.82;63.64;99604.81;2212095;79;50197;-74
2023/04/24 07:00:09;;;;;;;;;;;;;;;20.88;63.59;99607.95;2188496;79;51228;-73
2023/04/24 07:03:11;;;;;;;;;;;;;;;20.94;63.44;99604.91;2223906;79;50255;-73
2023/04/24 07:06:12;;;;;;;;;;;;;;;20.96;63.29;99603.64;2243773;79;50421;-73
2023/04/24 07:09:15;;;;;;;;;;;;;;;20.98;63.08;99607.43;2244104;79;52184;-73
2023/04/24 07:12:19;;;;;;;;;;;;;;;20.95;63.03;99600.63;2189381;79;51624;-72
2023/04/24 07:15:20;;;;;;;;;;;;;;;20.97;62.98;99603.11;2244319;79;22298;-72
2023/04/24 07:18:23;;;;;;;;;;;;;;;20.93;63.06;99600.03;2244101;79;50279;-72
2023/04/24 07:21:25;;;;;;;;;;;;;;;20.90;62.81;99602.36;2244112;79;51533;-73
2023/04/24 07:24:27;;;;;;;;;;;;;;;20.95;63.03;99599.29;2212368;79;50752;-72
2023/04/24 07:27:28;;;;;;;;;;;;;;;20.97;62.94;99599.08;2244165;79;50717;-72
2023/04/24 07:30:30;;;;;;;;;;;;;;;20.95;62.86;99609.23;2256441;78;51249;-72
2023/04/24 07:33:31;;;;;;;;;;;;;;;20.90;62.79;99609.89;2212379;79;50662;-71
2023/04/24 07:36:33;;;;;;;;;;;;;;;20.85;62.82;99603.02;2188650;79;50118;-72
2023/04/24 07:39:34;;;;;;;;;;;;;;;20.79;62.90;99604.74;2244282;79;51523;-72
2023/04/24 07:42:36;;;;;;;;;;;;;;;20.80;63.08;99608.25;2212518;79;51149;-72
2023/04/24 07:45:39;;;;;;;;;;;;;;;20.90;63.11;99609.89;2243913;79;51390;-73
2023/04/24 07:48:41;;;;;;;;;;;;;;;20.96;62.83;99604.98;2212294;79;49673;-72
2023/04/24 07:51:42;;;;;;;;;;;;;;;20.97;62.65;99602.58;2212410;79;50390;-73
2023/04/24 07:54:44;;;;;;;;;;;;;;;20.96;62.60;99600.11;2244071;79;50641;-73
2023/04/24 07:57:45;;;;;;;;;;;;;;;20.93;62.53;99599.22;2244001;79;51523;-72
2023/04/24 08:00:47;;;;;;;;;;;;;;;20.94;62.50;99599.53;2197969;78;50277;-72
2023/04/24 08:03:49;;;;;;;;;;;;;;;20.94;62.58;99600.34;2251637;78;50749;-72
2023/04/24 08:06:50;;;;;;;;;;;;;;;20.94;62.47;99604.37;2212375;79;51334;-71
2023/04/24 08:09:52;;;;;;;;;;;;;;;20.94;62.40;99603.03;2212290;79;51530;-72
2023/04/24 08:12:55;;;;;;;;;;;;;;;20.93;62.47;99593.31;2175778;79;52592;-72
2023/04/24 08:15:57;;;;;;;;;;;;;;;20.92;62.39;99595.71;2243803;79;50433;-72
2023/04/24 08:18:58;;;;;;;;;;;;;;;20.89;62.40;99602.89;2212239;79;51677;-73
2023/04/24 08:22:00;;;;;;;;;;;;;;;20.87;62.42;99610.34;2243968;79;51529;-73
2023/04/24 08:25:02;;;;;;;;;;;;;;;20.83;62.50;99601.92;2212150;79;50772;-72
2023/04/24 08:28:04;;;;;;;;;;;;;;;20.80;62.53;99599.65;2212195;79;52278;-73
2023/04/24 08:31:05;;;;;;;;;;;;;;;20.80;62.56;99592.11;2259566;78;51560;-72
2023/04/24 08:34:07;;;;;;;;;;;;;;;20.82;62.62;99588.69;2276979;78;51525;-72
2023/04/24 08:37:08;;;;;;;;;;;;;;;20.80;62.57;99586.73;2224266;78;50966;-72
2023/04/24 08:40:12;;;;;;;;;;;;;;;20.80;62.57;99593.45;2281313;78;51455;-73
2023/04/24 08:43:14;;;;;;;;;;;;;;;20.77;62.61;99596.07;2281183;78;50683;-73
2023/04/24 08:46:16;;;;;;;;;;;;;;;20.78;62.59;99598.23;2248372;78;50395;-72
2023/04/24 08:49:18;;;;;;;;;;;;;;;20.77;62.61;99595.25;2248407;78;51042;-72
2023/04/24 08:52:19;;;;;;;;;;;;;;;20.77;62.67;99595.25;2281227;78;50297;-72
2023/04/24 08:55:21;;;;;;;;;;;;;;;20.78;62.62;99596.88;2281126;78;51584;-73
2023/04/24 08:58:23;;;;;;;;;;;;;;;20.76;62.66;99601.69;2248404;78;50414;-72
2023/04/24 09:01:25;;;;;;;;;;;;;;;20.77;62.65;99601.98;2200080;79;52576;-72
2023/04/24 09:04:26;;;;;;;;;;;;;;;20.75;62.66;99600.84;2243542;79;51505;-71
2023/04/24 09:07:28;;;;;;;;;;;;;;;20.74;62.67;99599.73;2244020;79;51513;-72
2023/04/24 09:10:30;;;;;;;;;;;;;;;20.75;62.62;99604.06;2244096;79;51462;-72
2023/04/24 09:13:32;;;;;;;;;;;;;;;20.74;62.66;99611.31;2212045;79;51022;-74
2023/04/24 09:16:34;;;;;;;;;;;;;;;20.74;62.65;99607.80;2243836;79;51530;-72
2023/04/24 09:19:36;;;;;;;;;;;;;;;20.72;62.70;99607.20;2244107;79;51640;-72
2023/04/24 09:22:38;;;;;;;;;;;;;;;20.73;62.65;99608.83;2244133;79;51526;-73
2023/04/24 09:25:40;;;;;;;;;;;;;;;20.69;62.71;99606.30;2212179;79;51025;-73
2023/04/24 09:28:43;;;;;;;;;;;;;;;20.67;62.72;99603.83;2243962;79;50335;-72
2023/04/24 09:31:45;;;;;;;;;;;;;;;20.66;62.75;99605.70;2257722;78;51584;-72
2023/04/24 09:34:47;;;;;;;;;;;;;;;20.65;62.75;99609.94;2253689;78;51710;-72
2023/04/24 09:37:49;;;;;;;;;;;;;;;20.66;62.70;99608.39;2253930;78;49795;-72
2023/04/24 09:40:50;;;;;;;;;;;;;;;20.63;62.71;99626.30;2289064;77;50225;-73
2023/04/24 09:43:53;;;;;;;;;;;;;;;20.66;62.63;99617.80;2252561;78;50418;-72
2023/04/24 09:46:56;;;;;;;;;;;;;;;20.65;62.60;99613.47;2289017;77;50778;-71
2023/04/24 09:49:59;;;;;;;;;;;;;;;20.68;62.61;99619.42;2254924;77;52376;-72
2023/04/24 09:53:04;;;;;;;;;;;;;;;20.68;62.50;99618.93;2254694;77;51543;-72
2023/04/24 09:56:09;;;;;;;;;;;;;;;20.70;62.49;99616.00;2251143;79;51521;-72
2023/04/24 09:59:11;;;;;;;;;;;;;;;20.65;62.63;99616.16;2294381;76;50294;-71
2023/04/24 10:02:19;;;;;;;;;;;;;;;20.62;62.70;99609.86;2252903;78;50659;-71
2023/04/24 10:05:22;;;;;;;;;;;;;;;20.62;62.75;99612.55;2229762;80;50785;-74
2023/04/24 10:08:24;;;;;;;;;;;;;;;20.62;62.78;99604.48;2230014;80;50834;-72
2023/04/24 10:11:28;;;;;;;;;;;;;;;20.61;62.79;99601.51;2229947;80;50700;-72
2023/04/24 10:14:29;;;;;;;;;;;;;;;20.62;62.71;99603.14;2208105;80;51879;-72
2023/04/24 10:17:31;;;;;;;;;;;;;;;20.62;62.75;99598.30;2230113;80;49813;-72
2023/04/24 10:20:33;;;;;;;;;;;;;;;20.62;62.73;99606.36;2230102;80;50273;-72
2023/04/24 10:23:34;;;;;;;;;;;;;;;20.61;62.75;99602.03;2209338;80;49759;-72
2023/04/24 10:26:37;;;;;;;;;;;;;;;20.61;62.76;99598.83;2209059;80;52437;-72
2023/04/24 10:29:38;;;;;;;;;;;;;;;20.59;62.78;99595.53;2237773;78;50662;-72
2023/04/24 10:32:40;;;;;;;;;;;;;;;20.60;62.76;99600.38;2249748;78;50730;-72
2023/04/24 10:35:42;;;;;;;;;;;;;;;20.59;62.75;99603.59;2229798;80;50403;-72
2023/04/24 10:38:44;;;;;;;;;;;;;;;20.62;62.61;99607.70;2209149;80;52411;-72
2023/04/24 10:41:46;;;;;;;;;;;;;;;20.59;62.72;99602.77;2209387;80;51423;-72
2023/04/24 10:44:49;;;;;;;;;;;;;;;20.58;62.70;99598.45;2229730;80;50253;-73
2023/04/24 10:48:01;;;;;;;;;;;;;;;20.58;62.63;99604.64;2229946;80;51420;-73
2023/04/24 10:51:03;;;;;;;;;;;;;;;20.61;62.49;99608.76;2173344;80;51372;-73
2023/04/24 10:54:06;;;;;;;;;;;;;;;20.60;62.46;99605.25;2209266;80;50782;-73
2023/04/24 10:57:24;;;;;;;;;;;;;;;20.63;62.36;99608.84;2227531;78;50766;-72
2023/04/24 11:00:27;;;;;;;;;;;;;;;20.63;62.36;99606.15;2240381;78;50321;-73
2023/04/24 11:03:30;;;;;;;;;;;;;;;20.63;62.31;99597.27;2212891;80;52750;-72
2023/04/24 11:06:32;;;;;;;;;;;;;;;20.61;62.38;99583.22;2228600;79;51577;-72
2023/04/24 11:09:36;;;;;;;;;;;;;;;20.61;62.33;99580.01;2209500;80;51493;-72
2023/04/24 11:12:37;;;;;;;;;;;;;;;20.62;62.37;99593.73;2209655;80;50393;-71
2023/04/24 11:15:40;;;;;;;;;;;;;;;20.61;62.44;99590.76;2185943;80;50035;-72
2023/04/24 11:18:45;;;;;;;;;;;;;;;20.60;62.51;99590.47;2230180;80;50807;-72
2023/04/24 11:21:55;;;;;;;;;;;;;;;20.57;62.61;99590.08;2230235;79;22324;-72
2023/04/24 11:24:57;;;;;;;;;;;;;;;20.57;62.57;99595.45;2209264;80;50692;-72
2023/04/24 11:28:05;;;;;;;;;;;;;;;20.54;62.64;99591.34;2186003;80;50856;-72
2023/04/24 11:31:26;;;;;;;;;;;;;;;20.57;62.52;99599.48;2244938;78;51582;-72
2023/04/24 11:34:27;;;;;;;;;;;;;;;20.57;62.43;99602.17;2229851;80;51611;-73
2023/04/24 11:37:30;;;;;;;;;;;;;;;20.55;62.44;99625.25;2230000;80;51553;-72
2023/04/24 11:40:31;;;;;;;;;;;;;;;20.52;62.47;99620.79;2186112;80;51038;-73
2023/04/24 11:43:33;;;;;;;;;;;;;;;20.50;62.51;99622.87;2209423;80;49847;-73
2023/04/24 11:46:35;;;;;;;;;;;;;;;20.49;62.50;99615.86;2229869;80;50428;-72
2023/04/24 11:49:39;;;;;;;;;;;;;;;20.52;62.47;99608.17;2209552;80;51557;-72
2023/04/24 11:52:41;;;;;;;;;;;;;;;20.58;62.43;99615.92;2209582;80;51604;-73
2023/04/24 11:55:43;;;;;;;;;;;;;;;20.54;62.54;99611.98;2229923;80;50941;-73
2023/04/24 11:58:44;;;;;;;;;;;;;;;20.53;62.53;99604.98;2230012;80;50478;-72
2023/04/24 12:01:46;;;;;;;;;;;;;;;20.52;62.56;99609.52;2209586;78;51626;-73
2023/04/24 12:04:48;;;;;;;;;;;;;;;20.52;62.52;99604.66;2221021;78;50997;-73
2023/04/24 12:07:49;;;;;;;;;;;;;;;20.52;62.52;99600.11;2266708;78;51510;-72
2023/04/24 12:10:51;;;;;;;;;;;;;;;20.52;62.51;99597.95;2245855;78;50705;-72
2023/04/24 12:13:53;;;;;;;;;;;;;;;20.52;62.49;99592.05;2266712;78;51649;-73
2023/04/24 12:16:55;;;;;;;;;;;;;;;20.52;62.46;99601.98;2221509;78;52564;-73
2023/04/24 12:20:03;;;;;;;;;;;;;;;20.50;62.46;99591.97;2246052;78;51496;-72
2023/04/24 12:23:05;;;;;;;;;;;;;;;20.51;62.39;99588.25;2246197;78;51517;-72
2023/04/24 12:26:06;;;;;;;;;;;;;;;20.50;62.42;99585.25;2245506;78;50339;-73
2023/04/24 12:29:08;;;;;;;;;;;;;;;20.47;62.40;99578.45;2219266;78;51015;-73
2023/04/24 12:32:11;;;;;;;;;;;;;;;20.51;62.27;99582.35;2252935;78;51519;-73
2023/04/24 12:35:13;;;;;;;;;;;;;;;20.54;62.19;99571.19;2228947;79;51755;-72
2023/04/24 12:38:16;;;;;;;;;;;;;;;20.54;62.15;99568.99;2229979;80;50407;-73
2023/04/24 12:41:19;;;;;;;;;;;;;;;20.49;62.28;99569.65;2209014;80;51038;-72
2023/04/24 12:44:20;;;;;;;;;;;;;;;20.53;62.19;99572.20;2209003;80;50204;-74
2023/04/24 12:47:22;;;;;;;;;;;;;;;20.55;62.21;99574.19;2209403;80;50719;-73
2023/04/24 12:50:23;;;;;;;;;;;;;;;20.54;62.16;99576.55;2209093;80;50413;-73
2023/04/24 12:53:26;;;;;;;;;;;;;;;20.56;62.15;99572.31;2173089;80;49596;-73
2023/04/24 12:56:28;;;;;;;;;;;;;;;20.55;62.19;99573.34;2209238;80;51551;-73
2023/04/24 12:59:29;;;;;;;;;;;;;;;20.53;62.19;99566.83;2215041;78;51508;-73
2023/04/24 13:02:31;;;;;;;;;;;;;;;20.52;62.32;99567.86;2254463;78;51347;-73
2023/04/24 13:05:33;;;;;;;;;;;;;;;20.54;62.28;99567.16;2221266;78;50156;-73
2023/04/24 13:08:34;;;;;;;;;;;;;;;20.53;62.35;99574.08;2245653;78;50412;-72
2023/04/24 13:11:36;;;;;;;;;;;;;;;20.52;62.33;99574.58;2266753;78;50336;-73
2023/04/24 13:14:37;;;;;;;;;;;;;;;20.50;62.22;99565.94;2266551;78;51494;-74
2023/04/24 13:17:39;;;;;;;;;;;;;;;20.48;62.22;99563.17;2245404;78;50936;-73
2023/04/24 13:20:41;;;;;;;;;;;;;;;20.44;62.29;99561.44;2245684;78;50696;-73
2023/04/24 13:23:43;;;;;;;;;;;;;;;20.44;62.31;99572.19;2266706;78;50258;-74
2023/04/24 13:26:44;;;;;;;;;;;;;;;20.45;62.30;99568.47;2266608;78;50517;-73
2023/04/24 13:29:46;;;;;;;;;;;;;;;20.43;62.26;99570.55;2217379;78;51355;-73
2023/04/24 13:32:47;;;;;;;;;;;;;;;20.44;62.25;99552.84;2240140;78;50493;-73
2023/04/24 13:35:49;;;;;;;;;;;;;;;20.43;62.29;99553.09;2229678;80;50380;-72
2023/04/24 13:38:51;;;;;;;;;;;;;;;20.47;62.29;99556.14;2209388;80;51523;-73
2023/04/24 13:41:53;;;;;;;;;;;;;;;20.48;62.21;99559.95;2173017;80;51269;-73
2023/04/24 13:44:54;;;;;;;;;;;;;;;20.51;62.15;99561.38;2229746;80;51450;-73
2023/04/24 13:47:57;;;;;;;;;;;;;;;20.51;62.10;99550.11;2209352;80;51573;-73
2023/04/24 13:50:58;;;;;;;;;;;;;;;20.53;62.06;99556.09;2209565;80;50023;-73
2023/04/24 13:54:00;;;;;;;;;;;;;;;20.53;62.11;99563.33;2173079;80;51455;-73
2023/04/24 13:57:02;;;;;;;;;;;;;;;20.53;62.11;99560.64;2209246;80;50741;-73
2023/04/24 14:00:06;;;;;;;;;;;;;;;20.55;62.07;99557.22;2241673;78;51536;-72
2023/04/24 14:03:07;;;;;;;;;;;;;;;20.55;62.03;99569.31;2253874;78;51524;-73
2023/04/24 14:06:09;;;;;;;;;;;;;;;20.54;62.02;99559.09;2221093;78;50833;-72
2023/04/24 14:09:10;;;;;;;;;;;;;;;20.54;61.99;99565.81;2245692;78;51555;-73
2023/04/24 14:12:12;;;;;;;;;;;;;;;20.52;62.03;99566.52;2266815;78;51540;-72
2023/04/24 14:15:14;;;;;;;;;;;;;;;20.54;61.98;99563.12;2266522;78;50808;-73
2023/04/24 14:18:16;;;;;;;;;;;;;;;20.53;62.00;99563.33;2221596;78;50603;-73
2023/04/24 14:21:17;;;;;;;;;;;;;;;20.50;62.04;99564.59;2266724;78;51452;-74
2023/04/24 14:24:19;;;;;;;;;;;;;;;20.49;62.03;99559.43;2245472;78;51392;-73
2023/04/24 14:27:20;;;;;;;;;;;;;;;20.48;62.04;99555.11;2245390;78;50758;-75
2023/04/24 14:30:22;;;;;;;;;;;;;;;20.46;62.05;99555.32;2220974;78;52615;-74
2023/04/24 14:33:23;;;;;;;;;;;;;;;20.49;61.96;99547.34;2198062;79;51453;-74
2023/04/24 14:36:25;;;;;;;;;;;;;;;20.49;61.96;99548.16;2190391;80;51652;-74
2023/04/24 14:39:27;;;;;;;;;;;;;;;20.50;61.99;99562.41;2190822;80;51583;-74
2023/04/24 14:42:28;;;;;;;;;;;;;;;20.49;61.97;99563.46;2167411;80;52655;-73
2023/04/24 14:45:30;;;;;;;;;;;;;;;20.48;61.93;99559.95;2190355;80;50327;-73
2023/04/24 14:48:31;;;;;;;;;;;;;;;20.48;61.90;99562.65;2190376;80;50247;-73
2023/04/24 14:51:33;;;;;;;;;;;;;;;20.49;61.87;99564.28;2190505;80;52172;-73
2023/04/24 14:54:34;;;;;;;;;;;;;;;20.49;61.82;99560.25;2190178;80;50074;-72
2023/04/24 14:57:36;;;;;;;;;;;;;;;20.51;61.80;99564.89;2190319;80;50760;-74
2023/04/24 15:00:38;;;;;;;;;;;;;;;20.53;61.76;99574.89;2227258;78;51512;-73
2023/04/24 15:03:39;;;;;;;;;;;;;;;20.52;61.84;99577.80;2228148;79;51466;-73
2023/04/24 15:06:41;;;;;;;;;;;;;;;20.51;61.88;99582.35;2183523;80;52630;-73
2023/04/24 15:09:43;;;;;;;;;;;;;;;20.49;61.88;99576.90;2228382;78;50780;-73
2023/04/24 15:12:45;;;;;;;;;;;;;;;20.48;61.84;99586.02;2229770;78;51515;-72
2023/04/24 15:15:49;;;;;;;;;;;;;;;20.47;61.83;99586.52;2229291;80;50486;-71
2023/04/24 15:18:51;;;;;;;;;;;;;;;20.47;61.71;99581.14;2228370;78;50170;-71
2023/04/24 15:21:52;;;;;;;;;;;;;;;20.47;61.86;99586.52;2245354;78;51552;-72
2023/04/24 15:24:54;;;;;;;;;;;;;;;20.54;61.19;99591.34;2266584;78;51537;-73
2023/04/24 15:27:55;;;;;;;;;;;;;;;20.56;60.04;99592.47;2245576;78;50660;-73
2023/04/24 15:30:57;;;;;;;;;;;;;;;20.57;58.50;99588.73;2228350;79;50819;-73
2023/04/24 15:33:59;;;;;;;;;;;;;;;20.51;56.72;99598.48;2187773;80;50982;-72
2023/04/24 15:37:00;;;;;;;;;;;;;;;20.47;56.38;99595.91;2189479;80;51540;-72
2023/04/24 15:40:04;;;;;;;;;;;;;;;20.43;55.27;99602.27;2212902;79;50757;-72
2023/04/24 15:43:05;;;;;;;;;;;;;;;20.40;53.52;99597.34;2213358;79;22988;-71
2023/04/24 15:46:07;;;;;;;;;;;;;;;20.41;53.28;99598.16;2166135;80;51069;-72
2023/04/24 15:49:08;;;;;;;;;;;;;;;20.39;53.67;99605.61;2217207;78;51530;-73